Swift Current Airport
CYYN : now visible

Airfield :











YOU CAN JOIN US ON...

 
LOGIN :

Register | Disclaimer

   EN    FR    IT 

 









Legend :    VFR   Marginal VFR   IFR   Intensive IFR   Very Intensive IFR
Visi :
Ceiling :
>= 8 km
>= 3000ft
5 to 8 km
1000 to 3000 ft
1500m to 5 km
500 to 1000 ft
800 to 1500m
200 to 500 ft
< 800m
< 200 ft
Symbols :   Thunderstorms  Fog  Heavy snow  Heavy precipitations  Wind > 20 kt






- Airport Elevation : 2680 ft
- IATA code : YYN


CYYN - Swift Current

CURRENT METAR :
  • 230627Z AUTO 30011KT 9SM FEW010 OVC021 M07/M09 A2984 RMK ICG SLP148

EXPIRED METARs :
  • 230604Z AUTO 30010KT 9SM -SN BKN010 OVC019 M07/M08 A2983 RMK ICG SLP146
  • 230511Z AUTO 29011KT 6SM -SN OVC010 M06/M07 A2981 RMK ICG SLP142
  • 230455Z AUTO 29014G19KT 5SM -SN OVC012 M05/M07 A2981 RMK ICG SLP142
  • 230441Z AUTO 28014KT 6SM -SN OVC014 M05/M07 A2981 RMK ICG INTMT SLP140
  • 230400Z AUTO 25009KT 3SM -SN OVC016 M06/M07 A2981 RMK ICG SLP141
  • 230354Z AUTO 26010KT 2 1/4SM -SN OVC016 M06/M07 A2981 RMK ICG SLP141

TAF TAF CYYN
Valid from the 23 at 06:00 until the 23 at 18:00 UTC


230538Z 2306/2318 30015KT 6SM -SN SCT006 OVC015
TEMPO 2306/2318 2SM -SN BR BKN006 OVC015
PROB30 2306/2316 1SM -SHSN BR RMK FCST BASED ON AUTO OBS. NXT FCST BY 231200Z
CZWG FIR / North America



MET'MAP, your aeronautical weather chart ! - Copyright ORBIFLY December 2007 - Disclaimer

ORBIFLY MET'MAP TEAM :

Programming & Development : Alexandra Zaïnal
Concept & original design : Baudouin d'Aumeries
Assistance for programming : Marc-Olivier Méhu
Technical & hardware support : Manuel Goepfert

Contact : metmap@orbifly.com




SOURCES & CREDITS :

   NOAA       Earth
Advisory